sensor_id;sensor_type;location;lat;lon;timestamp;P1;durP1;ratioP1;P2;durP2;ratioP2
37299;SDS011;23184;51.902;12.836;2023-04-29T00:01:40;21.67;;;15.00;;
37299;SDS011;23184;51.902;12.836;2023-04-29T00:04:41;19.25;;;14.82;;
37299;SDS011;23184;51.902;12.836;2023-04-29T00:08:16;21.02;;;15.48;;
37299;SDS011;23184;51.902;12.836;2023-04-29T00:11:41;20.80;;;14.68;;
37299;SDS011;23184;51.902;12.836;2023-04-29T00:15:09;20.17;;;14.15;;
37299;SDS011;23184;51.902;12.836;2023-04-29T00:22:04;18.40;;;15.13;;
37299;SDS011;23184;51.902;12.836;2023-04-29T00:25:22;19.52;;;14.77;;
37299;SDS011;23184;51.902;12.836;2023-04-29T00:28:24;23.05;;;15.30;;
37299;SDS011;23184;51.902;12.836;2023-04-29T00:31:15;23.10;;;16.33;;
37299;SDS011;23184;51.902;12.836;2023-04-29T00:34:31;22.08;;;16.23;;
37299;SDS011;23184;51.902;12.836;2023-04-29T00:37:06;24.17;;;16.70;;
37299;SDS011;23184;51.902;12.836;2023-04-29T00:39:34;21.50;;;16.30;;
37299;SDS011;23184;51.902;12.836;2023-04-29T00:42:08;23.05;;;16.02;;
37299;SDS011;23184;51.902;12.836;2023-04-29T00:44:42;24.25;;;16.67;;
37299;SDS011;23184;51.902;12.836;2023-04-29T00:47:24;24.23;;;16.17;;
37299;SDS011;23184;51.902;12.836;2023-04-29T00:50:50;23.15;;;16.73;;
37299;SDS011;23184;51.902;12.836;2023-04-29T00:53:36;20.80;;;15.85;;
37299;SDS011;23184;51.902;12.836;2023-04-29T00:56:05;24.60;;;16.65;;
37299;SDS011;23184;51.902;12.836;2023-04-29T00:58:58;20.73;;;16.85;;
37299;SDS011;23184;51.902;12.836;2023-04-29T01:01:35;22.38;;;16.70;;
37299;SDS011;23184;51.902;12.836;2023-04-29T01:04:08;24.63;;;17.27;;
37299;SDS011;23184;51.902;12.836;2023-04-29T01:06:38;23.83;;;17.60;;
37299;SDS011;23184;51.902;12.836;2023-04-29T01:12:54;25.63;;;17.52;;
37299;SDS011;23184;51.902;12.836;2023-04-29T01:16:40;22.88;;;17.35;;
37299;SDS011;23184;51.902;12.836;2023-04-29T01:21:58;23.85;;;16.58;;
37299;SDS011;23184;51.902;12.836;2023-04-29T01:25:14;23.73;;;17.35;;
37299;SDS011;23184;51.902;12.836;2023-04-29T01:28:06;22.95;;;17.15;;
37299;SDS011;23184;51.902;12.836;2023-04-29T01:35:19;27.40;;;17.67;;
37299;SDS011;23184;51.902;12.836;2023-04-29T01:43:57;28.05;;;18.17;;
37299;SDS011;23184;51.902;12.836;2023-04-29T01:46:25;31.38;;;19.92;;
37299;SDS011;23184;51.902;12.836;2023-04-29T01:48:54;31.15;;;20.33;;
37299;SDS011;23184;51.902;12.836;2023-04-29T01:51:23;27.50;;;20.98;;
37299;SDS011;23184;51.902;12.836;2023-04-29T01:53:54;31.33;;;20.83;;
37299;SDS011;23184;51.902;12.836;2023-04-29T01:56:32;36.28;;;22.67;;
37299;SDS011;23184;51.902;12.836;2023-04-29T01:59:00;35.35;;;24.08;;
37299;SDS011;23184;51.902;12.836;2023-04-29T02:01:37;37.35;;;24.33;;
37299;SDS011;23184;51.902;12.836;2023-04-29T02:04:05;38.28;;;25.25;;
37299;SDS011;23184;51.902;12.836;2023-04-29T02:07:01;36.25;;;23.88;;
37299;SDS011;23184;51.902;12.836;2023-04-29T02:09:40;35.75;;;24.83;;
37299;SDS011;23184;51.902;12.836;2023-04-29T02:12:20;36.28;;;24.67;;
37299;SDS011;23184;51.902;12.836;2023-04-29T02:14:52;35.80;;;25.27;;
37299;SDS011;23184;51.902;12.836;2023-04-29T02:17:23;37.05;;;24.60;;
37299;SDS011;23184;51.902;12.836;2023-04-29T02:19:58;39.85;;;26.27;;
37299;SDS011;23184;51.902;12.836;2023-04-29T02:22:29;33.50;;;24.77;;
37299;SDS011;23184;51.902;12.836;2023-04-29T02:31:04;44.05;;;28.10;;
37299;SDS011;23184;51.902;12.836;2023-04-29T02:34:28;47.43;;;31.37;;
37299;SDS011;23184;51.902;12.836;2023-04-29T02:37:22;48.85;;;30.60;;
37299;SDS011;23184;51.902;12.836;2023-04-29T02:40:48;47.90;;;29.80;;
37299;SDS011;23184;51.902;12.836;2023-04-29T02:43:43;50.45;;;31.02;;
37299;SDS011;23184;51.902;12.836;2023-04-29T02:46:46;57.50;;;34.13;;
37299;SDS011;23184;51.902;12.836;2023-04-29T02:49:12;63.38;;;35.55;;
37299;SDS011;23184;51.902;12.836;2023-04-29T02:51:38;56.13;;;34.25;;
37299;SDS011;23184;51.902;12.836;2023-04-29T02:54:03;64.80;;;35.78;;
37299;SDS011;23184;51.902;12.836;2023-04-29T02:56:29;63.75;;;37.83;;
37299;SDS011;23184;51.902;12.836;2023-04-29T02:58:55;67.18;;;39.03;;
37299;SDS011;23184;51.902;12.836;2023-04-29T03:01:20;60.10;;;36.30;;
37299;SDS011;23184;51.902;12.836;2023-04-29T03:03:46;69.63;;;37.40;;
37299;SDS011;23184;51.902;12.836;2023-04-29T03:06:13;69.85;;;39.20;;
37299;SDS011;23184;51.902;12.836;2023-04-29T03:08:39;68.10;;;39.67;;
37299;SDS011;23184;51.902;12.836;2023-04-29T03:11:05;72.38;;;41.83;;
37299;SDS011;23184;51.902;12.836;2023-04-29T03:13:30;73.03;;;40.63;;
37299;SDS011;23184;51.902;12.836;2023-04-29T03:15:56;76.93;;;41.70;;
37299;SDS011;23184;51.902;12.836;2023-04-29T03:18:23;86.18;;;44.13;;
37299;SDS011;23184;51.902;12.836;2023-04-29T03:20:49;83.22;;;44.03;;
37299;SDS011;23184;51.902;12.836;2023-04-29T03:23:14;87.28;;;46.13;;
37299;SDS011;23184;51.902;12.836;2023-04-29T03:25:39;96.35;;;48.22;;
37299;SDS011;23184;51.902;12.836;2023-04-29T03:28:05;97.47;;;47.22;;
37299;SDS011;23184;51.902;12.836;2023-04-29T03:30:31;101.13;;;48.97;;
37299;SDS011;23184;51.902;12.836;2023-04-29T03:32:57;97.13;;;47.95;;
37299;SDS011;23184;51.902;12.836;2023-04-29T03:35:22;103.03;;;47.85;;
37299;SDS011;23184;51.902;12.836;2023-04-29T03:37:48;102.63;;;49.33;;
37299;SDS011;23184;51.902;12.836;2023-04-29T03:40:14;104.03;;;50.60;;
37299;SDS011;23184;51.902;12.836;2023-04-29T03:42:39;109.97;;;50.80;;
37299;SDS011;23184;51.902;12.836;2023-04-29T03:45:05;105.38;;;50.78;;
37299;SDS011;23184;51.902;12.836;2023-04-29T03:47:31;105.05;;;51.88;;
37299;SDS011;23184;51.902;12.836;2023-04-29T03:49:56;111.65;;;51.80;;
37299;SDS011;23184;51.902;12.836;2023-04-29T03:52:22;120.60;;;52.30;;
37299;SDS011;23184;51.902;12.836;2023-04-29T03:54:47;122.07;;;53.58;;
37299;SDS011;23184;51.902;12.836;2023-04-29T03:57:13;117.88;;;54.50;;
37299;SDS011;23184;51.902;12.836;2023-04-29T03:59:38;115.20;;;52.22;;
37299;SDS011;23184;51.902;12.836;2023-04-29T04:02:04;116.75;;;51.92;;
37299;SDS011;23184;51.902;12.836;2023-04-29T04:04:29;120.72;;;54.28;;
37299;SDS011;23184;51.902;12.836;2023-04-29T04:06:55;118.97;;;54.45;;
37299;SDS011;23184;51.902;12.836;2023-04-29T04:09:21;122.35;;;55.45;;
37299;SDS011;23184;51.902;12.836;2023-04-29T04:11:46;120.15;;;54.95;;
37299;SDS011;23184;51.902;12.836;2023-04-29T04:14:11;129.30;;;55.63;;
37299;SDS011;23184;51.902;12.836;2023-04-29T04:16:37;131.68;;;56.58;;
37299;SDS011;23184;51.902;12.836;2023-04-29T04:19:03;123.22;;;55.30;;
37299;SDS011;23184;51.902;12.836;2023-04-29T04:21:28;119.22;;;54.08;;
37299;SDS011;23184;51.902;12.836;2023-04-29T04:23:55;117.35;;;54.25;;
37299;SDS011;23184;51.902;12.836;2023-04-29T04:26:21;115.15;;;53.22;;
37299;SDS011;23184;51.902;12.836;2023-04-29T04:28:47;113.57;;;54.33;;
37299;SDS011;23184;51.902;12.836;2023-04-29T04:31:12;116.43;;;54.78;;
37299;SDS011;23184;51.902;12.836;2023-04-29T04:33:38;114.03;;;54.45;;
37299;SDS011;23184;51.902;12.836;2023-04-29T04:36:07;110.40;;;51.45;;
37299;SDS011;23184;51.902;12.836;2023-04-29T04:38:32;108.88;;;50.35;;
37299;SDS011;23184;51.902;12.836;2023-04-29T04:40:58;104.82;;;51.00;;
37299;SDS011;23184;51.902;12.836;2023-04-29T04:43:23;99.18;;;49.75;;
37299;SDS011;23184;51.902;12.836;2023-04-29T04:45:49;98.00;;;49.30;;
37299;SDS011;23184;51.902;12.836;2023-04-29T04:48:14;95.55;;;48.63;;
37299;SDS011;23184;51.902;12.836;2023-04-29T04:50:40;96.13;;;47.35;;
37299;SDS011;23184;51.902;12.836;2023-04-29T04:53:05;86.63;;;45.08;;
37299;SDS011;23184;51.902;12.836;2023-04-29T04:55:31;91.15;;;45.80;;
37299;SDS011;23184;51.902;12.836;2023-04-29T04:58:00;87.40;;;43.85;;
37299;SDS011;23184;51.902;12.836;2023-04-29T05:00:26;88.93;;;44.47;;
37299;SDS011;23184;51.902;12.836;2023-04-29T05:02:51;77.10;;;41.40;;
37299;SDS011;23184;51.902;12.836;2023-04-29T05:05:17;75.38;;;41.83;;
37299;SDS011;23184;51.902;12.836;2023-04-29T05:07:42;70.55;;;39.00;;
37299;SDS011;23184;51.902;12.836;2023-04-29T05:10:08;70.65;;;38.78;;
37299;SDS011;23184;51.902;12.836;2023-04-29T05:12:33;66.30;;;36.95;;
37299;SDS011;23184;51.902;12.836;2023-04-29T05:14:59;76.80;;;39.85;;
37299;SDS011;23184;51.902;12.836;2023-04-29T05:17:25;72.30;;;37.85;;
37299;SDS011;23184;51.902;12.836;2023-04-29T05:19:51;69.25;;;37.20;;
37299;SDS011;23184;51.902;12.836;2023-04-29T05:22:16;73.10;;;37.58;;
37299;SDS011;23184;51.902;12.836;2023-04-29T05:24:42;69.78;;;37.53;;
37299;SDS011;23184;51.902;12.836;2023-04-29T05:27:07;70.78;;;37.30;;
37299;SDS011;23184;51.902;12.836;2023-04-29T05:29:33;66.45;;;35.83;;
37299;SDS011;23184;51.902;12.836;2023-04-29T05:31:58;68.18;;;33.75;;
37299;SDS011;23184;51.902;12.836;2023-04-29T05:34:24;61.95;;;33.28;;
37299;SDS011;23184;51.902;12.836;2023-04-29T05:36:50;63.80;;;32.28;;
37299;SDS011;23184;51.902;12.836;2023-04-29T05:39:15;65.93;;;33.63;;
37299;SDS011;23184;51.902;12.836;2023-04-29T05:41:41;62.92;;;32.33;;
37299;SDS011;23184;51.902;12.836;2023-04-29T05:44:07;63.80;;;32.42;;
37299;SDS011;23184;51.902;12.836;2023-04-29T05:46:32;67.95;;;33.25;;
37299;SDS011;23184;51.902;12.836;2023-04-29T05:48:58;66.63;;;32.15;;
37299;SDS011;23184;51.902;12.836;2023-04-29T05:51:23;68.03;;;32.45;;
37299;SDS011;23184;51.902;12.836;2023-04-29T05:53:49;61.30;;;30.65;;
37299;SDS011;23184;51.902;12.836;2023-04-29T05:56:14;64.35;;;32.08;;
37299;SDS011;23184;51.902;12.836;2023-04-29T05:58:40;63.45;;;30.40;;
37299;SDS011;23184;51.902;12.836;2023-04-29T06:01:06;61.30;;;29.63;;
37299;SDS011;23184;51.902;12.836;2023-04-29T06:03:31;62.92;;;31.63;;
37299;SDS011;23184;51.902;12.836;2023-04-29T06:05:57;68.90;;;29.80;;
37299;SDS011;23184;51.902;12.836;2023-04-29T06:08:22;54.17;;;27.70;;
37299;SDS011;23184;51.902;12.836;2023-04-29T06:10:48;59.58;;;29.20;;
37299;SDS011;23184;51.902;12.836;2023-04-29T06:13:15;59.47;;;27.92;;
37299;SDS011;23184;51.902;12.836;2023-04-29T06:15:41;54.83;;;26.55;;
37299;SDS011;23184;51.902;12.836;2023-04-29T06:18:06;49.90;;;26.67;;
37299;SDS011;23184;51.902;12.836;2023-04-29T06:20:32;54.90;;;26.95;;
37299;SDS011;23184;51.902;12.836;2023-04-29T06:22:57;50.22;;;24.90;;
37299;SDS011;23184;51.902;12.836;2023-04-29T06:25:23;51.00;;;25.27;;
37299;SDS011;23184;51.902;12.836;2023-04-29T06:27:48;48.45;;;23.05;;
37299;SDS011;23184;51.902;12.836;2023-04-29T06:30:14;42.92;;;22.27;;
37299;SDS011;23184;51.902;12.836;2023-04-29T06:32:40;43.08;;;21.23;;
37299;SDS011;23184;51.902;12.836;2023-04-29T06:35:05;41.95;;;22.15;;
37299;SDS011;23184;51.902;12.836;2023-04-29T06:37:31;42.25;;;22.10;;
37299;SDS011;23184;51.902;12.836;2023-04-29T06:39:57;40.65;;;20.90;;
37299;SDS011;23184;51.902;12.836;2023-04-29T06:42:22;41.30;;;20.70;;
37299;SDS011;23184;51.902;12.836;2023-04-29T06:44:48;45.92;;;22.02;;
37299;SDS011;23184;51.902;12.836;2023-04-29T06:47:13;43.90;;;23.42;;
37299;SDS011;23184;51.902;12.836;2023-04-29T06:49:39;40.13;;;20.35;;
37299;SDS011;23184;51.902;12.836;2023-04-29T06:52:04;42.63;;;21.95;;
37299;SDS011;23184;51.902;12.836;2023-04-29T06:54:30;39.92;;;20.45;;
37299;SDS011;23184;51.902;12.836;2023-04-29T06:56:55;34.20;;;18.70;;
37299;SDS011;23184;51.902;12.836;2023-04-29T06:59:22;31.13;;;18.23;;
37299;SDS011;23184;51.902;12.836;2023-04-29T07:01:47;29.25;;;15.93;;
37299;SDS011;23184;51.902;12.836;2023-04-29T07:04:13;27.20;;;15.80;;
37299;SDS011;23184;51.902;12.836;2023-04-29T07:06:38;19.95;;;13.73;;
37299;SDS011;23184;51.902;12.836;2023-04-29T07:09:04;22.20;;;13.57;;
37299;SDS011;23184;51.902;12.836;2023-04-29T07:11:29;22.23;;;14.20;;
37299;SDS011;23184;51.902;12.836;2023-04-29T07:13:55;21.23;;;13.90;;
37299;SDS011;23184;51.902;12.836;2023-04-29T07:16:20;22.38;;;13.20;;
37299;SDS011;23184;51.902;12.836;2023-04-29T07:18:46;21.10;;;12.90;;
37299;SDS011;23184;51.902;12.836;2023-04-29T07:21:13;25.38;;;15.55;;
37299;SDS011;23184;51.902;12.836;2023-04-29T07:23:38;24.75;;;14.38;;
37299;SDS011;23184;51.902;12.836;2023-04-29T07:26:10;23.63;;;13.75;;
37299;SDS011;23184;51.902;12.836;2023-04-29T07:28:37;23.90;;;15.20;;
37299;SDS011;23184;51.902;12.836;2023-04-29T07:31:02;20.67;;;12.85;;
37299;SDS011;23184;51.902;12.836;2023-04-29T07:33:28;19.58;;;12.90;;
37299;SDS011;23184;51.902;12.836;2023-04-29T07:35:53;18.88;;;12.48;;
37299;SDS011;23184;51.902;12.836;2023-04-29T07:38:19;24.17;;;14.55;;
37299;SDS011;23184;51.902;12.836;2023-04-29T07:40:45;25.58;;;14.82;;
37299;SDS011;23184;51.902;12.836;2023-04-29T07:43:11;31.98;;;19.73;;
37299;SDS011;23184;51.902;12.836;2023-04-29T07:45:37;33.40;;;19.17;;
37299;SDS011;23184;51.902;12.836;2023-04-29T07:48:03;19.58;;;12.00;;
37299;SDS011;23184;51.902;12.836;2023-04-29T07:50:29;15.50;;;9.63;;
37299;SDS011;23184;51.902;12.836;2023-04-29T07:52:58;19.35;;;9.77;;
37299;SDS011;23184;51.902;12.836;2023-04-29T07:55:24;17.17;;;10.35;;
37299;SDS011;23184;51.902;12.836;2023-04-29T07:57:51;16.60;;;10.63;;
37299;SDS011;23184;51.902;12.836;2023-04-29T08:00:16;14.02;;;9.07;;
37299;SDS011;23184;51.902;12.836;2023-04-29T08:02:42;14.45;;;9.15;;
37299;SDS011;23184;51.902;12.836;2023-04-29T08:05:08;15.45;;;9.20;;
37299;SDS011;23184;51.902;12.836;2023-04-29T08:07:34;14.38;;;9.35;;
37299;SDS011;23184;51.902;12.836;2023-04-29T08:09:59;13.52;;;8.93;;
37299;SDS011;23184;51.902;12.836;2023-04-29T08:12:25;11.35;;;7.57;;
37299;SDS011;23184;51.902;12.836;2023-04-29T08:14:50;13.30;;;8.30;;
37299;SDS011;23184;51.902;12.836;2023-04-29T08:17:16;13.98;;;7.85;;
37299;SDS011;23184;51.902;12.836;2023-04-29T08:19:41;12.90;;;8.05;;
37299;SDS011;23184;51.902;12.836;2023-04-29T08:22:07;12.75;;;8.00;;
37299;SDS011;23184;51.902;12.836;2023-04-29T08:24:35;13.50;;;8.02;;
37299;SDS011;23184;51.902;12.836;2023-04-29T08:27:00;11.40;;;7.47;;
37299;SDS011;23184;51.902;12.836;2023-04-29T08:29:29;9.98;;;7.07;;
37299;SDS011;23184;51.902;12.836;2023-04-29T08:31:56;11.27;;;7.55;;
37299;SDS011;23184;51.902;12.836;2023-04-29T08:34:22;11.82;;;8.00;;
37299;SDS011;23184;51.902;12.836;2023-04-29T08:36:47;12.68;;;8.73;;
37299;SDS011;23184;51.902;12.836;2023-04-29T08:39:13;10.77;;;7.63;;
37299;SDS011;23184;51.902;12.836;2023-04-29T08:41:38;13.80;;;8.70;;
37299;SDS011;23184;51.902;12.836;2023-04-29T08:44:04;13.55;;;8.38;;
37299;SDS011;23184;51.902;12.836;2023-04-29T08:46:30;13.05;;;8.60;;
37299;SDS011;23184;51.902;12.836;2023-04-29T08:48:56;15.00;;;8.70;;
37299;SDS011;23184;51.902;12.836;2023-04-29T08:51:22;13.48;;;8.95;;
37299;SDS011;23184;51.902;12.836;2023-04-29T08:53:48;13.15;;;8.93;;
37299;SDS011;23184;51.902;12.836;2023-04-29T08:56:17;14.40;;;8.15;;
37299;SDS011;23184;51.902;12.836;2023-04-29T08:58:45;15.73;;;9.27;;
37299;SDS011;23184;51.902;12.836;2023-04-29T09:01:13;17.05;;;9.90;;
37299;SDS011;23184;51.902;12.836;2023-04-29T09:03:41;16.17;;;10.45;;
37299;SDS011;23184;51.902;12.836;2023-04-29T09:06:14;17.05;;;11.00;;
37299;SDS011;23184;51.902;12.836;2023-04-29T09:08:40;17.40;;;10.57;;
37299;SDS011;23184;51.902;12.836;2023-04-29T09:11:08;16.38;;;10.80;;
37299;SDS011;23184;51.902;12.836;2023-04-29T09:13:36;22.00;;;12.15;;
37299;SDS011;23184;51.902;12.836;2023-04-29T09:16:01;17.25;;;11.10;;
37299;SDS011;23184;51.902;12.836;2023-04-29T09:18:43;19.05;;;11.52;;
37299;SDS011;23184;51.902;12.836;2023-04-29T09:21:14;21.08;;;12.73;;
37299;SDS011;23184;51.902;12.836;2023-04-29T09:23:45;18.40;;;12.05;;
37299;SDS011;23184;51.902;12.836;2023-04-29T09:26:12;22.92;;;13.70;;
37299;SDS011;23184;51.902;12.836;2023-04-29T09:28:38;22.85;;;13.65;;
37299;SDS011;23184;51.902;12.836;2023-04-29T09:31:08;22.80;;;13.50;;
37299;SDS011;23184;51.902;12.836;2023-04-29T09:33:51;21.55;;;13.80;;
37299;SDS011;23184;51.902;12.836;2023-04-29T09:36:38;21.48;;;14.05;;
37299;SDS011;23184;51.902;12.836;2023-04-29T09:39:04;24.08;;;15.02;;
37299;SDS011;23184;51.902;12.836;2023-04-29T09:44:17;20.88;;;13.50;;
37299;SDS011;23184;51.902;12.836;2023-04-29T09:47:03;27.02;;;15.18;;
37299;SDS011;23184;51.902;12.836;2023-04-29T09:52:05;24.52;;;14.10;;
37299;SDS011;23184;51.902;12.836;2023-04-29T09:54:31;25.17;;;13.02;;
37299;SDS011;23184;51.902;12.836;2023-04-29T09:56:58;21.33;;;12.43;;
37299;SDS011;23184;51.902;12.836;2023-04-29T09:59:25;23.80;;;13.23;;
37299;SDS011;23184;51.902;12.836;2023-04-29T10:01:51;23.90;;;12.52;;
37299;SDS011;23184;51.902;12.836;2023-04-29T10:04:23;22.77;;;13.43;;
37299;SDS011;23184;51.902;12.836;2023-04-29T10:06:51;26.92;;;13.45;;
37299;SDS011;23184;51.902;12.836;2023-04-29T10:09:20;27.77;;;13.75;;
37299;SDS011;23184;51.902;12.836;2023-04-29T10:11:47;26.00;;;14.13;;
37299;SDS011;23184;51.902;12.836;2023-04-29T10:14:15;27.73;;;14.10;;
37299;SDS011;23184;51.902;12.836;2023-04-29T10:16:44;25.42;;;13.43;;
37299;SDS011;23184;51.902;12.836;2023-04-29T10:19:29;27.50;;;14.00;;
37299;SDS011;23184;51.902;12.836;2023-04-29T10:22:11;23.67;;;12.98;;
37299;SDS011;23184;51.902;12.836;2023-04-29T10:24:40;22.10;;;12.65;;
37299;SDS011;23184;51.902;12.836;2023-04-29T10:27:07;28.65;;;13.55;;
37299;SDS011;23184;51.902;12.836;2023-04-29T10:29:36;28.75;;;14.00;;
37299;SDS011;23184;51.902;12.836;2023-04-29T10:32:05;27.85;;;14.15;;
37299;SDS011;23184;51.902;12.836;2023-04-29T10:34:33;28.95;;;14.52;;
37299;SDS011;23184;51.902;12.836;2023-04-29T10:37:01;28.40;;;14.52;;
37299;SDS011;23184;51.902;12.836;2023-04-29T10:42:35;30.67;;;15.90;;
37299;SDS011;23184;51.902;12.836;2023-04-29T10:48:11;25.80;;;14.30;;
37299;SDS011;23184;51.902;12.836;2023-04-29T10:53:12;28.33;;;15.88;;
37299;SDS011;23184;51.902;12.836;2023-04-29T10:55:39;27.88;;;16.52;;
37299;SDS011;23184;51.902;12.836;2023-04-29T10:58:05;26.35;;;16.05;;
37299;SDS011;23184;51.902;12.836;2023-04-29T11:00:59;26.30;;;15.20;;
37299;SDS011;23184;51.902;12.836;2023-04-29T11:06:18;27.80;;;15.90;;
37299;SDS011;23184;51.902;12.836;2023-04-29T11:08:46;24.90;;;16.30;;
37299;SDS011;23184;51.902;12.836;2023-04-29T11:11:12;23.85;;;15.35;;
37299;SDS011;23184;51.902;12.836;2023-04-29T11:13:38;26.80;;;15.48;;
37299;SDS011;23184;51.902;12.836;2023-04-29T11:16:05;25.70;;;16.80;;
37299;SDS011;23184;51.902;12.836;2023-04-29T11:18:31;27.42;;;16.73;;
37299;SDS011;23184;51.902;12.836;2023-04-29T11:23:30;26.73;;;16.20;;
37299;SDS011;23184;51.902;12.836;2023-04-29T11:25:58;24.50;;;15.48;;
37299;SDS011;23184;51.902;12.836;2023-04-29T11:28:26;28.30;;;17.48;;
37299;SDS011;23184;51.902;12.836;2023-04-29T11:30:52;25.25;;;17.55;;
37299;SDS011;23184;51.902;12.836;2023-04-29T11:33:21;26.80;;;17.58;;
37299;SDS011;23184;51.902;12.836;2023-04-29T11:35:47;28.00;;;17.55;;
37299;SDS011;23184;51.902;12.836;2023-04-29T11:38:13;27.35;;;16.83;;
37299;SDS011;23184;51.902;12.836;2023-04-29T11:40:47;28.00;;;16.58;;
37299;SDS011;23184;51.902;12.836;2023-04-29T11:43:16;29.38;;;18.13;;
37299;SDS011;23184;51.902;12.836;2023-04-29T11:45:43;27.20;;;17.42;;
37299;SDS011;23184;51.902;12.836;2023-04-29T11:48:16;30.13;;;18.25;;
37299;SDS011;23184;51.902;12.836;2023-04-29T11:50:42;29.85;;;17.67;;
37299;SDS011;23184;51.902;12.836;2023-04-29T11:53:10;31.60;;;19.17;;
37299;SDS011;23184;51.902;12.836;2023-04-29T11:55:36;28.13;;;18.27;;
37299;SDS011;23184;51.902;12.836;2023-04-29T11:58:04;32.13;;;19.48;;
37299;SDS011;23184;51.902;12.836;2023-04-29T12:00:29;34.40;;;20.85;;
37299;SDS011;23184;51.902;12.836;2023-04-29T12:02:55;34.83;;;20.52;;
37299;SDS011;23184;51.902;12.836;2023-04-29T12:05:24;32.83;;;19.85;;
37299;SDS011;23184;51.902;12.836;2023-04-29T12:07:50;35.03;;;20.10;;
37299;SDS011;23184;51.902;12.836;2023-04-29T12:10:15;31.90;;;19.25;;
37299;SDS011;23184;51.902;12.836;2023-04-29T12:12:41;32.53;;;19.02;;
37299;SDS011;23184;51.902;12.836;2023-04-29T12:15:10;31.45;;;18.33;;
37299;SDS011;23184;51.902;12.836;2023-04-29T12:17:37;31.75;;;18.58;;
37299;SDS011;23184;51.902;12.836;2023-04-29T12:20:03;30.80;;;18.52;;
37299;SDS011;23184;51.902;12.836;2023-04-29T12:22:33;29.95;;;17.83;;
37299;SDS011;23184;51.902;12.836;2023-04-29T12:24:59;29.23;;;17.50;;
37299;SDS011;23184;51.902;12.836;2023-04-29T12:27:28;26.15;;;16.08;;
37299;SDS011;23184;51.902;12.836;2023-04-29T12:29:55;27.85;;;15.80;;
37299;SDS011;23184;51.902;12.836;2023-04-29T12:32:22;26.48;;;16.58;;
37299;SDS011;23184;51.902;12.836;2023-04-29T12:34:49;24.73;;;15.80;;
37299;SDS011;23184;51.902;12.836;2023-04-29T12:37:16;24.40;;;14.15;;
37299;SDS011;23184;51.902;12.836;2023-04-29T12:39:42;25.77;;;14.40;;
37299;SDS011;23184;51.902;12.836;2023-04-29T12:42:10;24.25;;;14.27;;
37299;SDS011;23184;51.902;12.836;2023-04-29T12:44:43;24.88;;;14.50;;
37299;SDS011;23184;51.902;12.836;2023-04-29T12:47:11;23.40;;;14.23;;
37299;SDS011;23184;51.902;12.836;2023-04-29T12:49:39;21.17;;;13.85;;
37299;SDS011;23184;51.902;12.836;2023-04-29T12:52:07;23.08;;;13.32;;
37299;SDS011;23184;51.902;12.836;2023-04-29T12:54:34;21.90;;;13.43;;
37299;SDS011;23184;51.902;12.836;2023-04-29T12:57:01;21.30;;;13.75;;
37299;SDS011;23184;51.902;12.836;2023-04-29T12:59:26;20.23;;;12.38;;
37299;SDS011;23184;51.902;12.836;2023-04-29T13:01:52;23.08;;;13.50;;
37299;SDS011;23184;51.902;12.836;2023-04-29T13:04:18;21.13;;;12.90;;
37299;SDS011;23184;51.902;12.836;2023-04-29T13:06:43;22.55;;;13.38;;
37299;SDS011;23184;51.902;12.836;2023-04-29T13:09:09;22.63;;;13.65;;
37299;SDS011;23184;51.902;12.836;2023-04-29T13:11:36;22.13;;;13.80;;
37299;SDS011;23184;51.902;12.836;2023-04-29T13:14:02;24.40;;;14.13;;
37299;SDS011;23184;51.902;12.836;2023-04-29T13:16:28;20.40;;;13.25;;
37299;SDS011;23184;51.902;12.836;2023-04-29T13:18:53;26.08;;;13.52;;
37299;SDS011;23184;51.902;12.836;2023-04-29T13:21:19;25.40;;;12.57;;
37299;SDS011;23184;51.902;12.836;2023-04-29T13:23:45;20.52;;;12.35;;
37299;SDS011;23184;51.902;12.836;2023-04-29T13:26:12;22.25;;;12.90;;
37299;SDS011;23184;51.902;12.836;2023-04-29T13:28:37;19.42;;;11.65;;
37299;SDS011;23184;51.902;12.836;2023-04-29T13:31:03;19.08;;;12.30;;
37299;SDS011;23184;51.902;12.836;2023-04-29T13:33:29;18.15;;;11.63;;
37299;SDS011;23184;51.902;12.836;2023-04-29T13:35:54;17.40;;;11.77;;
37299;SDS011;23184;51.902;12.836;2023-04-29T13:38:20;16.85;;;11.10;;
37299;SDS011;23184;51.902;12.836;2023-04-29T13:40:45;15.80;;;10.88;;
37299;SDS011;23184;51.902;12.836;2023-04-29T13:43:11;18.42;;;9.80;;
37299;SDS011;23184;51.902;12.836;2023-04-29T13:45:37;16.27;;;10.45;;
37299;SDS011;23184;51.902;12.836;2023-04-29T13:48:02;15.85;;;9.15;;
37299;SDS011;23184;51.902;12.836;2023-04-29T13:50:28;13.52;;;9.73;;
37299;SDS011;23184;51.902;12.836;2023-04-29T13:52:54;12.52;;;8.23;;
37299;SDS011;23184;51.902;12.836;2023-04-29T13:55:20;12.43;;;8.32;;
37299;SDS011;23184;51.902;12.836;2023-04-29T13:57:46;13.38;;;8.10;;
37299;SDS011;23184;51.902;12.836;2023-04-29T14:00:12;12.95;;;8.18;;
37299;SDS011;23184;51.902;12.836;2023-04-29T14:02:38;11.63;;;7.88;;
37299;SDS011;23184;51.902;12.836;2023-04-29T14:05:04;10.90;;;7.50;;
37299;SDS011;23184;51.902;12.836;2023-04-29T14:07:30;10.52;;;7.13;;
37299;SDS011;23184;51.902;12.836;2023-04-29T14:09:56;11.65;;;7.20;;
37299;SDS011;23184;51.902;12.836;2023-04-29T14:12:21;8.60;;;6.03;;
37299;SDS011;23184;51.902;12.836;2023-04-29T14:14:47;12.63;;;5.97;;
37299;SDS011;23184;51.902;12.836;2023-04-29T14:17:12;10.10;;;5.55;;
37299;SDS011;23184;51.902;12.836;2023-04-29T14:19:38;8.85;;;6.07;;
37299;SDS011;23184;51.902;12.836;2023-04-29T14:22:04;12.23;;;6.25;;
37299;SDS011;23184;51.902;12.836;2023-04-29T14:24:29;9.43;;;5.25;;
37299;SDS011;23184;51.902;12.836;2023-04-29T14:26:55;8.60;;;5.20;;
37299;SDS011;23184;51.902;12.836;2023-04-29T14:29:21;9.25;;;6.03;;
37299;SDS011;23184;51.902;12.836;2023-04-29T14:31:47;6.65;;;5.53;;
37299;SDS011;23184;51.902;12.836;2023-04-29T14:34:13;8.88;;;5.70;;
37299;SDS011;23184;51.902;12.836;2023-04-29T14:36:38;9.13;;;5.68;;
37299;SDS011;23184;51.902;12.836;2023-04-29T14:39:04;9.30;;;5.75;;
37299;SDS011;23184;51.902;12.836;2023-04-29T14:41:30;12.18;;;6.72;;
37299;SDS011;23184;51.902;12.836;2023-04-29T14:43:56;10.75;;;6.35;;
37299;SDS011;23184;51.902;12.836;2023-04-29T14:46:21;11.00;;;6.80;;
37299;SDS011;23184;51.902;12.836;2023-04-29T14:48:47;10.80;;;6.85;;
37299;SDS011;23184;51.902;12.836;2023-04-29T14:51:13;10.38;;;6.93;;
37299;SDS011;23184;51.902;12.836;2023-04-29T14:53:39;12.10;;;6.35;;
37299;SDS011;23184;51.902;12.836;2023-04-29T14:56:04;14.05;;;7.28;;
37299;SDS011;23184;51.902;12.836;2023-04-29T14:58:31;12.65;;;7.53;;
37299;SDS011;23184;51.902;12.836;2023-04-29T15:00:57;13.63;;;8.30;;
37299;SDS011;23184;51.902;12.836;2023-04-29T15:03:22;12.68;;;7.05;;
37299;SDS011;23184;51.902;12.836;2023-04-29T15:05:48;12.60;;;6.80;;
37299;SDS011;23184;51.902;12.836;2023-04-29T15:08:15;9.88;;;6.85;;
37299;SDS011;23184;51.902;12.836;2023-04-29T15:10:41;10.77;;;6.55;;
37299;SDS011;23184;51.902;12.836;2023-04-29T15:13:09;12.30;;;6.57;;